sensor_id;sensor_type;location;lat;lon;timestamp;pressure;altitude;pressure_sealevel;temperature
63220;BMP180;49320;52.512;13.448;2023-02-26T00:01:36;100707.00;;;6.80
63220;BMP180;49320;52.512;13.448;2023-02-26T00:04:06;100714.00;;;6.80
63220;BMP180;49320;52.512;13.448;2023-02-26T00:06:37;100712.00;;;6.80
63220;BMP180;49320;52.512;13.448;2023-02-26T00:09:05;100714.00;;;6.80
63220;BMP180;49320;52.512;13.448;2023-02-26T00:11:32;100725.00;;;6.80
63220;BMP180;49320;52.512;13.448;2023-02-26T00:13:59;100727.00;;;6.80
63220;BMP180;49320;52.512;13.448;2023-02-26T00:16:34;100725.00;;;6.80
63220;BMP180;49320;52.512;13.448;2023-02-26T00:19:05;100732.00;;;6.80
63220;BMP180;49320;52.512;13.448;2023-02-26T00:21:34;100738.00;;;6.80
63220;BMP180;49320;52.512;13.448;2023-02-26T00:24:02;100741.00;;;6.90
63220;BMP180;49320;52.512;13.448;2023-02-26T00:26:30;100740.00;;;6.90
63220;BMP180;49320;52.512;13.448;2023-02-26T00:28:58;100749.00;;;6.90
63220;BMP180;49320;52.512;13.448;2023-02-26T00:31:25;100753.00;;;7.00
63220;BMP180;49320;52.512;13.448;2023-02-26T00:33:55;100758.00;;;7.00
63220;BMP180;49320;52.512;13.448;2023-02-26T00:36:37;100758.00;;;7.10
63220;BMP180;49320;52.512;13.448;2023-02-26T00:39:43;100759.00;;;7.10
63220;BMP180;49320;52.512;13.448;2023-02-26T00:42:13;100764.00;;;7.10
63220;BMP180;49320;52.512;13.448;2023-02-26T00:44:40;100764.00;;;7.10
63220;BMP180;49320;52.512;13.448;2023-02-26T00:47:28;100775.00;;;7.10
63220;BMP180;49320;52.512;13.448;2023-02-26T00:50:17;100773.00;;;7.10
63220;BMP180;49320;52.512;13.448;2023-02-26T00:53:16;100777.00;;;7.10
63220;BMP180;49320;52.512;13.448;2023-02-26T00:55:45;100781.00;;;7.10
63220;BMP180;49320;52.512;13.448;2023-02-26T00:58:12;100788.00;;;7.10
63220;BMP180;49320;52.512;13.448;2023-02-26T01:00:38;100779.00;;;7.10
63220;BMP180;49320;52.512;13.448;2023-02-26T01:03:06;100792.00;;;7.20
63220;BMP180;49320;52.512;13.448;2023-02-26T01:05:33;100791.00;;;7.20
63220;BMP180;49320;52.512;13.448;2023-02-26T01:10:34;100803.00;;;7.20
63220;BMP180;49320;52.512;13.448;2023-02-26T01:13:01;100800.00;;;7.20
63220;BMP180;49320;52.512;13.448;2023-02-26T01:15:29;100797.00;;;7.20
63220;BMP180;49320;52.512;13.448;2023-02-26T01:18:14;100791.00;;;7.20
63220;BMP180;49320;52.512;13.448;2023-02-26T01:21:02;100800.00;;;7.20
63220;BMP180;49320;52.512;13.448;2023-02-26T01:23:34;100801.00;;;7.30
63220;BMP180;49320;52.512;13.448;2023-02-26T01:26:14;100807.00;;;7.30
63220;BMP180;49320;52.512;13.448;2023-02-26T01:28:43;100811.00;;;7.30
63220;BMP180;49320;52.512;13.448;2023-02-26T01:31:29;100797.00;;;7.30
63220;BMP180;49320;52.512;13.448;2023-02-26T01:34:11;100814.00;;;7.30
63220;BMP180;49320;52.512;13.448;2023-02-26T01:37:22;100811.00;;;7.30
63220;BMP180;49320;52.512;13.448;2023-02-26T01:43:18;100810.00;;;7.40
63220;BMP180;49320;52.512;13.448;2023-02-26T01:48:55;100825.00;;;7.40
63220;BMP180;49320;52.512;13.448;2023-02-26T01:51:45;100834.00;;;7.40
63220;BMP180;49320;52.512;13.448;2023-02-26T01:54:16;100822.00;;;7.30
63220;BMP180;49320;52.512;13.448;2023-02-26T01:56:50;100825.00;;;7.30
63220;BMP180;49320;52.512;13.448;2023-02-26T01:59:19;100830.00;;;7.40
63220;BMP180;49320;52.512;13.448;2023-02-26T02:01:57;100828.00;;;7.40
63220;BMP180;49320;52.512;13.448;2023-02-26T02:04:24;100845.00;;;7.40
63220;BMP180;49320;52.512;13.448;2023-02-26T02:06:54;100830.00;;;7.40
63220;BMP180;49320;52.512;13.448;2023-02-26T02:09:21;100845.00;;;7.40
63220;BMP180;49320;52.512;13.448;2023-02-26T02:12:07;100844.00;;;7.40
63220;BMP180;49320;52.512;13.448;2023-02-26T02:15:10;100858.00;;;7.50
63220;BMP180;49320;52.512;13.448;2023-02-26T02:21:25;100871.00;;;7.50
63220;BMP180;49320;52.512;13.448;2023-02-26T02:27:06;100875.00;;;7.50
63220;BMP180;49320;52.512;13.448;2023-02-26T02:32:48;100873.00;;;7.40
63220;BMP180;49320;52.512;13.448;2023-02-26T02:35:33;100872.00;;;7.40
63220;BMP180;49320;52.512;13.448;2023-02-26T02:38:23;100882.00;;;7.50
63220;BMP180;49320;52.512;13.448;2023-02-26T02:41:16;100892.00;;;7.50
63220;BMP180;49320;52.512;13.448;2023-02-26T02:43:46;100891.00;;;7.40
63220;BMP180;49320;52.512;13.448;2023-02-26T02:46:24;100892.00;;;7.50
63220;BMP180;49320;52.512;13.448;2023-02-26T02:49:00;100891.00;;;7.50
63220;BMP180;49320;52.512;13.448;2023-02-26T02:51:44;100905.00;;;7.50
63220;BMP180;49320;52.512;13.448;2023-02-26T02:54:26;100915.00;;;7.50
63220;BMP180;49320;52.512;13.448;2023-02-26T02:57:03;100906.00;;;7.50
63220;BMP180;49320;52.512;13.448;2023-02-26T02:59:45;100910.00;;;7.50
63220;BMP180;49320;52.512;13.448;2023-02-26T03:02:26;100914.00;;;7.50
63220;BMP180;49320;52.512;13.448;2023-02-26T03:04:54;100919.00;;;7.50
63220;BMP180;49320;52.512;13.448;2023-02-26T03:07:21;100913.00;;;7.50
63220;BMP180;49320;52.512;13.448;2023-02-26T03:09:48;100912.00;;;7.50
63220;BMP180;49320;52.512;13.448;2023-02-26T03:12:15;100925.00;;;7.50
63220;BMP180;49320;52.512;13.448;2023-02-26T03:14:42;100922.00;;;7.60
63220;BMP180;49320;52.512;13.448;2023-02-26T03:17:38;100916.00;;;7.60
63220;BMP180;49320;52.512;13.448;2023-02-26T03:20:25;100934.00;;;7.50
63220;BMP180;49320;52.512;13.448;2023-02-26T03:23:19;100937.00;;;7.50
63220;BMP180;49320;52.512;13.448;2023-02-26T03:28:58;100944.00;;;7.50
63220;BMP180;49320;52.512;13.448;2023-02-26T03:31:54;100952.00;;;7.50
63220;BMP180;49320;52.512;13.448;2023-02-26T03:34:44;100954.00;;;7.50
63220;BMP180;49320;52.512;13.448;2023-02-26T03:37:22;100958.00;;;7.50
63220;BMP180;49320;52.512;13.448;2023-02-26T03:39:56;100966.00;;;7.50
63220;BMP180;49320;52.512;13.448;2023-02-26T03:42:33;100984.00;;;7.50
63220;BMP180;49320;52.512;13.448;2023-02-26T03:45:09;100978.00;;;7.50
63220;BMP180;49320;52.512;13.448;2023-02-26T03:47:40;100980.00;;;7.50
63220;BMP180;49320;52.512;13.448;2023-02-26T03:50:19;100988.00;;;7.40
63220;BMP180;49320;52.512;13.448;2023-02-26T03:52:49;100990.00;;;7.40
63220;BMP180;49320;52.512;13.448;2023-02-26T03:55:39;100997.00;;;7.40
63220;BMP180;49320;52.512;13.448;2023-02-26T03:58:06;101001.00;;;7.40
63220;BMP180;49320;52.512;13.448;2023-02-26T04:00:37;101014.00;;;7.40
63220;BMP180;49320;52.512;13.448;2023-02-26T04:06:02;101005.00;;;7.40
63220;BMP180;49320;52.512;13.448;2023-02-26T04:08:29;101005.00;;;7.40
63220;BMP180;49320;52.512;13.448;2023-02-26T04:11:05;101021.00;;;7.40
63220;BMP180;49320;52.512;13.448;2023-02-26T04:13:32;101019.00;;;7.40
63220;BMP180;49320;52.512;13.448;2023-02-26T04:15:59;101018.00;;;7.40
63220;BMP180;49320;52.512;13.448;2023-02-26T04:18:26;101026.00;;;7.40
63220;BMP180;49320;52.512;13.448;2023-02-26T04:20:53;101030.00;;;7.30
63220;BMP180;49320;52.512;13.448;2023-02-26T04:23:20;101022.00;;;7.30
63220;BMP180;49320;52.512;13.448;2023-02-26T04:25:47;101036.00;;;7.30
63220;BMP180;49320;52.512;13.448;2023-02-26T04:28:14;101038.00;;;7.30
63220;BMP180;49320;52.512;13.448;2023-02-26T04:30:41;101031.00;;;7.30
63220;BMP180;49320;52.512;13.448;2023-02-26T04:33:07;101028.00;;;7.30
63220;BMP180;49320;52.512;13.448;2023-02-26T04:35:34;101044.00;;;7.30
63220;BMP180;49320;52.512;13.448;2023-02-26T04:38:01;101047.00;;;7.30
63220;BMP180;49320;52.512;13.448;2023-02-26T04:40:28;101057.00;;;7.30
63220;BMP180;49320;52.512;13.448;2023-02-26T04:42:55;101059.00;;;7.30
63220;BMP180;49320;52.512;13.448;2023-02-26T04:45:22;101058.00;;;7.30
63220;BMP180;49320;52.512;13.448;2023-02-26T04:47:49;101066.00;;;7.30
63220;BMP180;49320;52.512;13.448;2023-02-26T04:50:16;101063.00;;;7.30
63220;BMP180;49320;52.512;13.448;2023-02-26T04:52:42;101070.00;;;7.30
63220;BMP180;49320;52.512;13.448;2023-02-26T04:55:09;101070.00;;;7.40
63220;BMP180;49320;52.512;13.448;2023-02-26T04:57:36;101080.00;;;7.30
63220;BMP180;49320;52.512;13.448;2023-02-26T05:00:04;101089.00;;;7.40
63220;BMP180;49320;52.512;13.448;2023-02-26T05:02:33;101088.00;;;7.30
63220;BMP180;49320;52.512;13.448;2023-02-26T05:05:00;101086.00;;;7.30
63220;BMP180;49320;52.512;13.448;2023-02-26T05:07:27;101099.00;;;7.30
63220;BMP180;49320;52.512;13.448;2023-02-26T05:09:54;101083.00;;;7.30
63220;BMP180;49320;52.512;13.448;2023-02-26T05:12:21;101088.00;;;7.40
63220;BMP180;49320;52.512;13.448;2023-02-26T05:14:48;101104.00;;;7.30
63220;BMP180;49320;52.512;13.448;2023-02-26T05:17:15;101109.00;;;7.30
63220;BMP180;49320;52.512;13.448;2023-02-26T05:19:41;101119.00;;;7.30
63220;BMP180;49320;52.512;13.448;2023-02-26T05:22:08;101100.00;;;7.40
63220;BMP180;49320;52.512;13.448;2023-02-26T05:24:35;101110.00;;;7.40
63220;BMP180;49320;52.512;13.448;2023-02-26T05:27:02;101134.00;;;7.40
63220;BMP180;49320;52.512;13.448;2023-02-26T05:29:29;101123.00;;;7.40
63220;BMP180;49320;52.512;13.448;2023-02-26T05:31:56;101121.00;;;7.40
63220;BMP180;49320;52.512;13.448;2023-02-26T05:34:23;101134.00;;;7.40
63220;BMP180;49320;52.512;13.448;2023-02-26T05:36:50;101121.00;;;7.50
63220;BMP180;49320;52.512;13.448;2023-02-26T05:39:16;101148.00;;;7.50
63220;BMP180;49320;52.512;13.448;2023-02-26T05:41:43;101134.00;;;7.50
63220;BMP180;49320;52.512;13.448;2023-02-26T05:44:12;101148.00;;;7.50
63220;BMP180;49320;52.512;13.448;2023-02-26T05:46:39;101142.00;;;7.50
63220;BMP180;49320;52.512;13.448;2023-02-26T05:49:06;101152.00;;;7.50
63220;BMP180;49320;52.512;13.448;2023-02-26T05:51:32;101157.00;;;7.50
63220;BMP180;49320;52.512;13.448;2023-02-26T05:53:59;101150.00;;;7.50
63220;BMP180;49320;52.512;13.448;2023-02-26T05:56:26;101157.00;;;7.50
63220;BMP180;49320;52.512;13.448;2023-02-26T05:58:53;101148.00;;;7.50
63220;BMP180;49320;52.512;13.448;2023-02-26T06:01:20;101158.00;;;7.60
63220;BMP180;49320;52.512;13.448;2023-02-26T06:03:47;101163.00;;;7.60
63220;BMP180;49320;52.512;13.448;2023-02-26T06:06:15;101175.00;;;7.60
63220;BMP180;49320;52.512;13.448;2023-02-26T06:08:44;101164.00;;;7.60
63220;BMP180;49320;52.512;13.448;2023-02-26T06:11:11;101167.00;;;7.60
63220;BMP180;49320;52.512;13.448;2023-02-26T06:13:38;101171.00;;;7.60
63220;BMP180;49320;52.512;13.448;2023-02-26T06:16:05;101181.00;;;7.60
63220;BMP180;49320;52.512;13.448;2023-02-26T06:18:32;101189.00;;;7.60
63220;BMP180;49320;52.512;13.448;2023-02-26T06:21:00;101178.00;;;7.60
63220;BMP180;49320;52.512;13.448;2023-02-26T06:23:27;101193.00;;;7.60
63220;BMP180;49320;52.512;13.448;2023-02-26T06:25:54;101210.00;;;7.60
63220;BMP180;49320;52.512;13.448;2023-02-26T06:28:21;101213.00;;;7.60
63220;BMP180;49320;52.512;13.448;2023-02-26T06:30:52;101216.00;;;7.60
63220;BMP180;49320;52.512;13.448;2023-02-26T06:33:20;101218.00;;;7.60
63220;BMP180;49320;52.512;13.448;2023-02-26T06:35:47;101218.00;;;7.60
63220;BMP180;49320;52.512;13.448;2023-02-26T06:38:15;101220.00;;;7.60
63220;BMP180;49320;52.512;13.448;2023-02-26T06:40:42;101212.00;;;7.60
63220;BMP180;49320;52.512;13.448;2023-02-26T06:43:09;101217.00;;;7.60
63220;BMP180;49320;52.512;13.448;2023-02-26T06:45:36;101218.00;;;7.60
63220;BMP180;49320;52.512;13.448;2023-02-26T06:48:04;101220.00;;;7.70
63220;BMP180;49320;52.512;13.448;2023-02-26T06:50:31;101221.00;;;7.70
63220;BMP180;49320;52.512;13.448;2023-02-26T06:52:58;101219.00;;;7.70
63220;BMP180;49320;52.512;13.448;2023-02-26T06:55:25;101255.00;;;7.70
63220;BMP180;49320;52.512;13.448;2023-02-26T06:57:56;101243.00;;;7.70
63220;BMP180;49320;52.512;13.448;2023-02-26T07:00:25;101252.00;;;7.70
63220;BMP180;49320;52.512;13.448;2023-02-26T07:02:52;101273.00;;;7.70
63220;BMP180;49320;52.512;13.448;2023-02-26T07:05:19;101269.00;;;7.70
63220;BMP180;49320;52.512;13.448;2023-02-26T07:07:46;101273.00;;;7.70
63220;BMP180;49320;52.512;13.448;2023-02-26T07:10:13;101273.00;;;7.80
63220;BMP180;49320;52.512;13.448;2023-02-26T07:12:39;101273.00;;;7.80
63220;BMP180;49320;52.512;13.448;2023-02-26T07:15:07;101276.00;;;7.90
63220;BMP180;49320;52.512;13.448;2023-02-26T07:17:34;101299.00;;;7.90
63220;BMP180;49320;52.512;13.448;2023-02-26T07:20:01;101301.00;;;8.00
63220;BMP180;49320;52.512;13.448;2023-02-26T07:22:32;101300.00;;;7.90
63220;BMP180;49320;52.512;13.448;2023-02-26T07:24:59;101308.00;;;7.90
63220;BMP180;49320;52.512;13.448;2023-02-26T07:27:26;101316.00;;;7.90
63220;BMP180;49320;52.512;13.448;2023-02-26T07:29:53;101317.00;;;7.90
63220;BMP180;49320;52.512;13.448;2023-02-26T07:32:20;101312.00;;;7.80
63220;BMP180;49320;52.512;13.448;2023-02-26T07:34:47;101317.00;;;7.80
63220;BMP180;49320;52.512;13.448;2023-02-26T07:37:14;101329.00;;;7.80
63220;BMP180;49320;52.512;13.448;2023-02-26T07:39:41;101340.00;;;7.80
63220;BMP180;49320;52.512;13.448;2023-02-26T07:42:08;101337.00;;;7.80
63220;BMP180;49320;52.512;13.448;2023-02-26T07:44:35;101337.00;;;7.80
63220;BMP180;49320;52.512;13.448;2023-02-26T07:47:02;101345.00;;;7.90
63220;BMP180;49320;52.512;13.448;2023-02-26T07:49:29;101344.00;;;7.80
63220;BMP180;49320;52.512;13.448;2023-02-26T07:51:58;101351.00;;;7.80
63220;BMP180;49320;52.512;13.448;2023-02-26T07:54:25;101363.00;;;7.80
63220;BMP180;49320;52.512;13.448;2023-02-26T07:56:52;101349.00;;;7.80
63220;BMP180;49320;52.512;13.448;2023-02-26T07:59:19;101355.00;;;7.80
63220;BMP180;49320;52.512;13.448;2023-02-26T08:01:46;101344.00;;;7.90
63220;BMP180;49320;52.512;13.448;2023-02-26T08:04:14;101360.00;;;7.90
63220;BMP180;49320;52.512;13.448;2023-02-26T08:06:41;101364.00;;;7.90
63220;BMP180;49320;52.512;13.448;2023-02-26T08:09:08;101366.00;;;7.90
63220;BMP180;49320;52.512;13.448;2023-02-26T08:11:35;101373.00;;;7.80
63220;BMP180;49320;52.512;13.448;2023-02-26T08:14:06;101381.00;;;7.90
63220;BMP180;49320;52.512;13.448;2023-02-26T08:16:33;101370.00;;;7.80
63220;BMP180;49320;52.512;13.448;2023-02-26T08:18:59;101378.00;;;7.80
63220;BMP180;49320;52.512;13.448;2023-02-26T08:21:26;101383.00;;;7.80
63220;BMP180;49320;52.512;13.448;2023-02-26T08:23:53;101398.00;;;7.80
63220;BMP180;49320;52.512;13.448;2023-02-26T08:26:20;101399.00;;;7.80
63220;BMP180;49320;52.512;13.448;2023-02-26T08:28:48;101407.00;;;7.80
63220;BMP180;49320;52.512;13.448;2023-02-26T08:31:15;101401.00;;;7.80
63220;BMP180;49320;52.512;13.448;2023-02-26T08:33:43;101409.00;;;7.90
63220;BMP180;49320;52.512;13.448;2023-02-26T08:36:10;101410.00;;;7.90
63220;BMP180;49320;52.512;13.448;2023-02-26T08:38:37;101418.00;;;7.90
63220;BMP180;49320;52.512;13.448;2023-02-26T08:41:05;101417.00;;;7.90
63220;BMP180;49320;52.512;13.448;2023-02-26T08:43:31;101421.00;;;7.90
63220;BMP180;49320;52.512;13.448;2023-02-26T08:45:58;101426.00;;;7.90
63220;BMP180;49320;52.512;13.448;2023-02-26T08:48:26;101441.00;;;7.90
63220;BMP180;49320;52.512;13.448;2023-02-26T08:50:53;101428.00;;;7.90
63220;BMP180;49320;52.512;13.448;2023-02-26T08:53:19;101431.00;;;7.90
63220;BMP180;49320;52.512;13.448;2023-02-26T08:55:48;101439.00;;;8.00
63220;BMP180;49320;52.512;13.448;2023-02-26T08:58:16;101438.00;;;8.00
63220;BMP180;49320;52.512;13.448;2023-02-26T09:00:43;101449.00;;;8.00
63220;BMP180;49320;52.512;13.448;2023-02-26T09:03:10;101445.00;;;8.10
63220;BMP180;49320;52.512;13.448;2023-02-26T09:05:37;101442.00;;;8.10
63220;BMP180;49320;52.512;13.448;2023-02-26T09:08:04;101444.00;;;8.10
63220;BMP180;49320;52.512;13.448;2023-02-26T09:10:31;101449.00;;;8.10
63220;BMP180;49320;52.512;13.448;2023-02-26T09:12:58;101447.00;;;8.10
63220;BMP180;49320;52.512;13.448;2023-02-26T09:15:25;101460.00;;;8.20
63220;BMP180;49320;52.512;13.448;2023-02-26T09:17:52;101471.00;;;8.20
63220;BMP180;49320;52.512;13.448;2023-02-26T09:20:19;101464.00;;;8.30
63220;BMP180;49320;52.512;13.448;2023-02-26T09:22:45;101458.00;;;8.30
63220;BMP180;49320;52.512;13.448;2023-02-26T09:25:14;101468.00;;;8.30
63220;BMP180;49320;52.512;13.448;2023-02-26T09:27:41;101471.00;;;8.40
63220;BMP180;49320;52.512;13.448;2023-02-26T09:30:09;101468.00;;;8.40
63220;BMP180;49320;52.512;13.448;2023-02-26T09:32:36;101482.00;;;8.50
63220;BMP180;49320;52.512;13.448;2023-02-26T09:35:04;101498.00;;;8.60
63220;BMP180;49320;52.512;13.448;2023-02-26T09:37:31;101509.00;;;8.60
63220;BMP180;49320;52.512;13.448;2023-02-26T09:39:57;101501.00;;;8.60
63220;BMP180;49320;52.512;13.448;2023-02-26T09:43:07;101510.00;;;8.60
63220;BMP180;49320;52.512;13.448;2023-02-26T09:45:40;101505.00;;;8.60
63220;BMP180;49320;52.512;13.448;2023-02-26T09:48:14;101515.00;;;8.60
63220;BMP180;49320;52.512;13.448;2023-02-26T09:50:49;101508.00;;;8.70
63220;BMP180;49320;52.512;13.448;2023-02-26T09:53:22;101517.00;;;8.70
63220;BMP180;49320;52.512;13.448;2023-02-26T09:55:57;101516.00;;;8.70
63220;BMP180;49320;52.512;13.448;2023-02-26T09:58:32;101518.00;;;8.70
63220;BMP180;49320;52.512;13.448;2023-02-26T10:01:22;101522.00;;;8.80
63220;BMP180;49320;52.512;13.448;2023-02-26T10:04:07;101528.00;;;8.80
63220;BMP180;49320;52.512;13.448;2023-02-26T10:07:07;101532.00;;;8.90
63220;BMP180;49320;52.512;13.448;2023-02-26T10:12:43;101532.00;;;9.00
63220;BMP180;49320;52.512;13.448;2023-02-26T10:18:09;101545.00;;;9.10
63220;BMP180;49320;52.512;13.448;2023-02-26T10:20:54;101547.00;;;9.10
63220;BMP180;49320;52.512;13.448;2023-02-26T10:23:41;101545.00;;;9.10
63220;BMP180;49320;52.512;13.448;2023-02-26T10:29:19;101560.00;;;9.20
63220;BMP180;49320;52.512;13.448;2023-02-26T10:35:00;101554.00;;;9.20
63220;BMP180;49320;52.512;13.448;2023-02-26T10:37:56;101559.00;;;9.30
63220;BMP180;49320;52.512;13.448;2023-02-26T10:40:48;101551.00;;;9.30
63220;BMP180;49320;52.512;13.448;2023-02-26T10:43:22;101568.00;;;9.40
63220;BMP180;49320;52.512;13.448;2023-02-26T10:49:26;101561.00;;;9.50
63220;BMP180;49320;52.512;13.448;2023-02-26T10:51:57;101571.00;;;9.60
63220;BMP180;49320;52.512;13.448;2023-02-26T10:54:39;101573.00;;;9.60
63220;BMP180;49320;52.512;13.448;2023-02-26T10:57:20;101573.00;;;9.60
63220;BMP180;49320;52.512;13.448;2023-02-26T10:59:48;101582.00;;;9.60
63220;BMP180;49320;52.512;13.448;2023-02-26T11:02:38;101578.00;;;9.70
63220;BMP180;49320;52.512;13.448;2023-02-26T11:05:16;101590.00;;;9.70
63220;BMP180;49320;52.512;13.448;2023-02-26T11:07:54;101593.00;;;9.80
63220;BMP180;49320;52.512;13.448;2023-02-26T11:10:27;101592.00;;;9.90
63220;BMP180;49320;52.512;13.448;2023-02-26T11:12:57;101587.00;;;10.00
63220;BMP180;49320;52.512;13.448;2023-02-26T11:15:26;101580.00;;;10.00
63220;BMP180;49320;52.512;13.448;2023-02-26T11:17:57;101587.00;;;10.10
63220;BMP180;49320;52.512;13.448;2023-02-26T11:20:35;101600.00;;;10.10
63220;BMP180;49320;52.512;13.448;2023-02-26T11:23:11;101597.00;;;10.20
63220;BMP180;49320;52.512;13.448;2023-02-26T11:25:39;101603.00;;;10.20
63220;BMP180;49320;52.512;13.448;2023-02-26T11:28:19;101612.00;;;10.20
63220;BMP180;49320;52.512;13.448;2023-02-26T11:30:47;101609.00;;;10.20
63220;BMP180;49320;52.512;13.448;2023-02-26T11:33:35;101601.00;;;10.20
63220;BMP180;49320;52.512;13.448;2023-02-26T11:36:14;101618.00;;;10.20
63220;BMP180;49320;52.512;13.448;2023-02-26T11:38:46;101622.00;;;10.30
63220;BMP180;49320;52.512;13.448;2023-02-26T11:41:13;101614.00;;;10.30
63220;BMP180;49320;52.512;13.448;2023-02-26T11:43:44;101619.00;;;10.40
63220;BMP180;49320;52.512;13.448;2023-02-26T11:46:13;101623.00;;;10.40
63220;BMP180;49320;52.512;13.448;2023-02-26T11:48:47;101621.00;;;10.50
63220;BMP180;49320;52.512;13.448;2023-02-26T11:51:21;101627.00;;;10.60
63220;BMP180;49320;52.512;13.448;2023-02-26T11:53:58;101628.00;;;10.60
63220;BMP180;49320;52.512;13.448;2023-02-26T11:56:37;101631.00;;;10.60
63220;BMP180;49320;52.512;13.448;2023-02-26T11:59:18;101629.00;;;10.60
63220;BMP180;49320;52.512;13.448;2023-02-26T12:01:47;101633.00;;;10.60
63220;BMP180;49320;52.512;13.448;2023-02-26T12:04:23;101627.00;;;10.60
63220;BMP180;49320;52.512;13.448;2023-02-26T12:06:54;101630.00;;;10.70
63220;BMP180;49320;52.512;13.448;2023-02-26T12:09:24;101638.00;;;10.70
63220;BMP180;49320;52.512;13.448;2023-02-26T12:14:53;101637.00;;;10.70
63220;BMP180;49320;52.512;13.448;2023-02-26T12:29:46;101645.00;;;10.70
63220;BMP180;49320;52.512;13.448;2023-02-26T12:32:50;101655.00;;;10.70
63220;BMP180;49320;52.512;13.448;2023-02-26T12:51:09;101652.00;;;10.60
63220;BMP180;49320;52.512;13.448;2023-02-26T12:54:19;101656.00;;;10.70
63220;BMP180;49320;52.512;13.448;2023-02-26T12:57:16;101648.00;;;10.70
63220;BMP180;49320;52.512;13.448;2023-02-26T13:00:12;101638.00;;;10.70
63220;BMP180;49320;52.512;13.448;2023-02-26T13:03:09;101653.00;;;10.70
63220;BMP180;49320;52.512;13.448;2023-02-26T13:06:22;101662.00;;;10.60
63220;BMP180;49320;52.512;13.448;2023-02-26T13:09:29;101676.00;;;10.60
63220;BMP180;49320;52.512;13.448;2023-02-26T13:12:20;101668.00;;;10.60
63220;BMP180;49320;52.512;13.448;2023-02-26T13:18:03;101663.00;;;10.80
63220;BMP180;49320;52.512;13.448;2023-02-26T13:20:34;101658.00;;;10.80
63220;BMP180;49320;52.512;13.448;2023-02-26T13:23:13;101666.00;;;10.90
63220;BMP180;49320;52.512;13.448;2023-02-26T13:25:52;101685.00;;;10.90
63220;BMP180;49320;52.512;13.448;2023-02-26T13:29:26;101686.00;;;10.80
63220;BMP180;49320;52.512;13.448;2023-02-26T13:32:08;101680.00;;;10.70
63220;BMP180;49320;52.512;13.448;2023-02-26T13:34:59;101701.00;;;10.70
63220;BMP180;49320;52.512;13.448;2023-02-26T13:37:31;101695.00;;;10.70
63220;BMP180;49320;52.512;13.448;2023-02-26T13:43:22;101682.00;;;10.70
63220;BMP180;49320;52.512;13.448;2023-02-26T13:49:08;101699.00;;;10.70
63220;BMP180;49320;52.512;13.448;2023-02-26T13:51:40;101700.00;;;10.60
63220;BMP180;49320;52.512;13.448;2023-02-26T13:54:44;101700.00;;;10.50
63220;BMP180;49320;52.512;13.448;2023-02-26T13:57:36;101696.00;;;10.50
63220;BMP180;49320;52.512;13.448;2023-02-26T14:00:30;101698.00;;;10.40
63220;BMP180;49320;52.512;13.448;2023-02-26T14:08:37;101700.00;;;10.50
63220;BMP180;49320;52.512;13.448;2023-02-26T14:14:09;101710.00;;;10.50
63220;BMP180;49320;52.512;13.448;2023-02-26T14:16:41;101706.00;;;10.50
63220;BMP180;49320;52.512;13.448;2023-02-26T14:19:37;101721.00;;;10.60
63220;BMP180;49320;52.512;13.448;2023-02-26T14:22:34;101710.00;;;10.60
63220;BMP180;49320;52.512;13.448;2023-02-26T14:25:19;101709.00;;;10.60
63220;BMP180;49320;52.512;13.448;2023-02-26T14:27:48;101714.00;;;10.70
63220;BMP180;49320;52.512;13.448;2023-02-26T14:30:31;101708.00;;;10.70
63220;BMP180;49320;52.512;13.448;2023-02-26T14:35:28;101713.00;;;10.70
63220;BMP180;49320;52.512;13.448;2023-02-26T14:38:02;101719.00;;;10.70
63220;BMP180;49320;52.512;13.448;2023-02-26T14:40:39;101717.00;;;10.70
63220;BMP180;49320;52.512;13.448;2023-02-26T14:43:35;101718.00;;;10.70
63220;BMP180;49320;52.512;13.448;2023-02-26T14:46:03;101726.00;;;10.80
63220;BMP180;49320;52.512;13.448;2023-02-26T14:48:32;101731.00;;;10.70
63220;BMP180;49320;52.512;13.448;2023-02-26T14:54:37;101749.00;;;10.70
63220;BMP180;49320;52.512;13.448;2023-02-26T14:57:51;101744.00;;;10.60
63220;BMP180;49320;52.512;13.448;2023-02-26T15:00:47;101742.00;;;10.60
63220;BMP180;49320;52.512;13.448;2023-02-26T15:03:54;101754.00;;;10.50
63220;BMP180;49320;52.512;13.448;2023-02-26T15:06:59;101749.00;;;10.50
63220;BMP180;49320;52.512;13.448;2023-02-26T15:10:00;101747.00;;;10.40
63220;BMP180;49320;52.512;13.448;2023-02-26T15:15:52;101741.00;;;10.30
63220;BMP180;49320;52.512;13.448;2023-02-26T15:21:46;101735.00;;;10.40
63220;BMP180;49320;52.512;13.448;2023-02-26T15:24:15;101742.00;;;10.50
63220;BMP180;49320;52.512;13.448;2023-02-26T15:26:51;101746.00;;;10.60
63220;BMP180;49320;52.512;13.448;2023-02-26T15:29:26;101759.00;;;10.70
63220;BMP180;49320;52.512;13.448;2023-02-26T15:31:59;101748.00;;;10.70
63220;BMP180;49320;52.512;13.448;2023-02-26T15:34:30;101762.00;;;10.70
63220;BMP180;49320;52.512;13.448;2023-02-26T15:36:59;101757.00;;;10.70
63220;BMP180;49320;52.512;13.448;2023-02-26T15:39:26;101764.00;;;10.70
63220;BMP180;49320;52.512;13.448;2023-02-26T15:41:54;101760.00;;;10.60
63220;BMP180;49320;52.512;13.448;2023-02-26T15:44:28;101758.00;;;10.60
63220;BMP180;49320;52.512;13.448;2023-02-26T15:47:00;101755.00;;;10.50
63220;BMP180;49320;52.512;13.448;2023-02-26T15:49:42;101769.00;;;10.50
63220;BMP180;49320;52.512;13.448;2023-02-26T15:52:16;101761.00;;;10.40
63220;BMP180;49320;52.512;13.448;2023-02-26T15:54:56;101775.00;;;10.30
63220;BMP180;49320;52.512;13.448;2023-02-26T15:57:27;101772.00;;;10.30
63220;BMP180;49320;52.512;13.448;2023-02-26T16:00:14;101767.00;;;10.20
63220;BMP180;49320;52.512;13.448;2023-02-26T16:02:42;101776.00;;;10.20
63220;BMP180;49320;52.512;13.448;2023-02-26T16:05:12;101771.00;;;10.10
63220;BMP180;49320;52.512;13.448;2023-02-26T16:07:42;101775.00;;;10.10
63220;BMP180;49320;52.512;13.448;2023-02-26T16:10:32;101763.00;;;10.00
63220;BMP180;49320;52.512;13.448;2023-02-26T16:13:01;101769.00;;;10.00
63220;BMP180;49320;52.512;13.448;2023-02-26T16:15:34;101774.00;;;10.00